x

Venice, Fl (venf1) Weather Station

7:00am - Sat 22nd Nov 2014 All times are EST. -5 hours from GMT.

  • Wind
    13mph, 17mph gusts
  • Sea Temp 65°f
  • Air Temp 67°f
  • Sea Pressure 1021.1mb
  • Venice, Fl
  • Venice, Fl

More Historic Weather Station data

Upgrade to MSW Pro to gain access to the past 30 days of data for over 8000 Wavebouys and Weather Stations around the globe.

Join Pro

Comparision Forecast

View Surf forecast
   
Sat 11/22 7:00am 13 17 mph 1021.1mb 65f 67f
6:00am 8 11 mph 1021.2mb 65f 67f
5:00am 10 15 mph 1021.1mb 65f 67f
4:00am 9 14 mph 1021.2mb 65f 67f
3:00am 9 13 mph 1021.4mb 65f 66f
2:00am 10 14 mph 1021.2mb 65f 67f
1:00am 13 16 mph 1021.8mb 65f 66f
12:00am 13 17 mph 1022.1mb 66f 66f
Fri 11/21 11:00pm 13 16 mph 1022.8mb 66f 66f
10:00pm 14 20 mph 1023mb 66f 66f
9:00pm 16 22 mph 1022.8mb 66f 67f
8:00pm 14 17 mph 1022.9mb 66f 67f
7:00pm 13 18 mph 1022.4mb 66f 68f
6:00pm 15 18 mph 1022.2mb 66f 69f
5:00pm 11 15 mph 1022mb 66f 71f
4:00pm 14 20 mph 1021.4mb 66f 71f
3:00pm 10 14 mph 1021.2mb 66f 70f
2:00pm 18 25 mph 1021.3mb 66f 71f
1:00pm 13 18 mph 1021.9mb 66f 71f
12:00pm 13 17 mph 1022.7mb 65f 69f
11:00am 16 20 mph 1023.4mb 65f 65f
10:00am 15 17 mph 1023.9mb 65f 64f
9:00am 16 20 mph 1023.6mb 65f 62f
8:00am 13 15 mph 1023mb 65f 60f
7:00am 11 15 mph 1022.4mb 65f 58f
6:00am 16 18 mph 1021.8mb 65f 57f
5:00am 10 14 mph 1021.3mb 65f 57f
4:00am 13 15 mph 1021.4mb 65f 57f
3:00am 13 16 mph 1021.3mb 65f 57f
2:00am 14 17 mph 1021.5mb 65f 57f
1:00am 13 15 mph 1021.7mb 66f 56f
12:00am 14 18 mph 1021.9mb 66f 57f
Thu 11/20 11:00pm 14 17 mph 1022mb 66f 58f
10:00pm 13 16 mph 1022.3mb 66f 58f
9:00pm 11 15 mph 1022.2mb 66f 59f
8:00pm 13 15 mph 1022.1mb 66f 60f
7:00pm 8 10 mph 1021.8mb 66f 61f
6:00pm 9 11 mph 1021.4mb 66f 64f
5:00pm 9 11 mph 1021mb 66f 67f
4:00pm 11 14 mph 1020.6mb 66f 68f
3:00pm 15 18 mph 1020.4mb 67f 68f
2:00pm 15 17 mph 1020.9mb 66f 67f
1:00pm 11 14 mph 1021.8mb 66f 65f
12:00pm 14 18 mph 1022.9mb 66f 64f
11:00am 14 16 mph 1023.9mb 66f 62f
10:00am 14 20 mph 1024.4mb 66f 58f
9:00am 11 14 mph 1024.2mb 66f 51f
8:00am 15 18 mph 1024.1mb 66f 49f
7:00am 11 14 mph 1023.5mb 65f 48f
6:00am 13 18 mph 1023.2mb 65f 48f
5:00am 13 15 mph 1022.9mb 65f 48f
4:00am 14 17 mph 1023mb 66f 49f
3:00am 15 18 mph 1023.5mb 66f 49f
2:00am 14 16 mph 1023.7mb 66f 49f
1:00am 13 15 mph 1023.9mb 66f 50f
12:00am 14 18 mph 1024.2mb 67f 51f
Wed 11/19 11:00pm 13 16 mph 1024.5mb 67f 52f
10:00pm 13 15 mph 1024.5mb 67f 53f
9:00pm 11 15 mph 1024.7mb 67f 54f
8:00pm 10 14 mph 1024.4mb 67f 55f
7:00pm 8 11 mph 1024.1mb 67f 56f
6:00pm 6 8 mph 1023.5mb 67f 58f
5:00pm 9 11 mph 1023.2mb 67f 59f
4:00pm 11 14 mph 1023.3mb 67f 60f
3:00pm 11 14 mph 1023.5mb 67f 59f
2:00pm 15 18 mph 1023.9mb 67f 57f
1:00pm 13 16 mph 1025mb 67f 57f
12:00pm 16 21 mph 1026.3mb 67f 54f
11:00am 17 26 mph 1026.7mb 67f 51f
10:00am 18 23 mph 1026.9mb 67f 48f
9:00am 11 16 mph 1026.9mb 67f 45f
8:00am 14 17 mph 1026.4mb 67f 43f
7:00am 15 22 mph 1025.8mb 67f 43f
6:00am 14 17 mph 1025.3mb 67f 44f
5:00am 15 20 mph 1024.4mb 67f 44f
4:00am 14 18 mph 1024.7mb 68f 44f
3:00am 16 21 mph 1024.8mb 68f 45f
2:00am 14 17 mph 1025.1mb 68f 47f
1:00am 16 20 mph 1025.3mb 69f 49f
12:00am 11 16 mph 1025.2mb 68f 49f
Tue 11/18 11:00pm 8 11 mph 1025.9mb 69f 48f
10:00pm 9 11 mph 1025.8mb 69f 48f
9:00pm 9 10 mph 1025.4mb 69f 48f
8:00pm 10 13 mph 1025.1mb 69f 49f
7:00pm 7 9 mph 1024.2mb 69f 51f
6:00pm 10 11 mph 1023.6mb 69f 53f
5:00pm 9 11 mph 1022.8mb 69f 54f
4:00pm 13 15 mph 1022.4mb 70f 54f
3:00pm 9 13 mph 1021.9mb 70f 54f
2:00pm 10 14 mph 1022.3mb 70f 53f